sensor_id;sensor_type;location;lat;lon;timestamp;P1;durP1;ratioP1;P2;durP2;ratioP2
39822;SDS011;25499;53.958;10.970;2024-03-02T06:31:09;68.97;;;33.90;;
39822;SDS011;25499;53.958;10.970;2024-03-02T06:33:37;68.20;;;33.00;;
39822;SDS011;25499;53.958;10.970;2024-03-02T06:36:05;60.10;;;31.48;;
39822;SDS011;25499;53.958;10.970;2024-03-02T06:38:36;61.30;;;31.13;;
39822;SDS011;25499;53.958;10.970;2024-03-02T06:41:09;61.83;;;30.15;;
39822;SDS011;25499;53.958;10.970;2024-03-02T06:43:36;58.13;;;30.15;;
39822;SDS011;25499;53.958;10.970;2024-03-02T06:46:04;64.65;;;31.23;;
39822;SDS011;25499;53.958;10.970;2024-03-02T06:48:37;66.03;;;30.55;;
39822;SDS011;25499;53.958;10.970;2024-03-02T06:51:09;60.35;;;29.45;;
39822;SDS011;25499;53.958;10.970;2024-03-02T06:53:37;66.50;;;29.77;;
39822;SDS011;25499;53.958;10.970;2024-03-02T06:56:05;58.58;;;29.67;;
39822;SDS011;25499;53.958;10.970;2024-03-02T06:58:35;65.17;;;28.43;;
39822;SDS011;25499;53.958;10.970;2024-03-02T07:01:03;65.13;;;29.50;;
39822;SDS011;25499;53.958;10.970;2024-03-02T07:03:32;60.17;;;30.00;;
39822;SDS011;25499;53.958;10.970;2024-03-02T07:09:04;62.65;;;30.42;;
39822;SDS011;25499;53.958;10.970;2024-03-02T07:11:34;64.43;;;31.35;;
39822;SDS011;25499;53.958;10.970;2024-03-02T07:14:03;61.55;;;30.00;;
39822;SDS011;25499;53.958;10.970;2024-03-02T07:16:38;59.13;;;31.00;;
39822;SDS011;25499;53.958;10.970;2024-03-02T07:19:12;64.55;;;31.15;;
39822;SDS011;25499;53.958;10.970;2024-03-02T07:24:25;69.63;;;30.27;;
39822;SDS011;25499;53.958;10.970;2024-03-02T07:26:56;58.33;;;28.65;;
39822;SDS011;25499;53.958;10.970;2024-03-02T07:29:23;63.80;;;30.00;;
39822;SDS011;25499;53.958;10.970;2024-03-02T07:31:50;60.08;;;29.08;;
39822;SDS011;25499;53.958;10.970;2024-03-02T07:34:17;62.28;;;30.55;;
39822;SDS011;25499;53.958;10.970;2024-03-02T07:36:44;58.78;;;30.20;;
39822;SDS011;25499;53.958;10.970;2024-03-02T07:39:13;63.67;;;31.45;;
39822;SDS011;25499;53.958;10.970;2024-03-02T07:41:40;65.68;;;31.00;;
39822;SDS011;25499;53.958;10.970;2024-03-02T07:44:06;64.55;;;31.05;;
39822;SDS011;25499;53.958;10.970;2024-03-02T07:46:33;66.65;;;33.22;;
39822;SDS011;25499;53.958;10.970;2024-03-02T07:49:00;65.07;;;33.45;;
39822;SDS011;25499;53.958;10.970;2024-03-02T07:51:27;65.88;;;31.75;;
39822;SDS011;25499;53.958;10.970;2024-03-02T07:53:55;67.10;;;32.30;;
39822;SDS011;25499;53.958;10.970;2024-03-02T07:56:24;62.13;;;31.42;;
39822;SDS011;25499;53.958;10.970;2024-03-02T07:58:51;58.65;;;29.73;;
39822;SDS011;25499;53.958;10.970;2024-03-02T08:01:18;68.20;;;32.25;;
39822;SDS011;25499;53.958;10.970;2024-03-02T08:03:45;62.20;;;31.08;;
39822;SDS011;25499;53.958;10.970;2024-03-02T08:06:13;66.88;;;31.50;;
39822;SDS011;25499;53.958;10.970;2024-03-02T08:08:40;62.88;;;30.98;;
39822;SDS011;25499;53.958;10.970;2024-03-02T08:11:07;60.72;;;31.30;;
39822;SDS011;25499;53.958;10.970;2024-03-02T08:20:04;62.30;;;31.42;;
39822;SDS011;25499;53.958;10.970;2024-03-02T08:22:33;66.25;;;32.05;;
39822;SDS011;25499;53.958;10.970;2024-03-02T08:25:01;67.65;;;32.10;;
39822;SDS011;25499;53.958;10.970;2024-03-02T08:27:35;67.80;;;31.25;;
39822;SDS011;25499;53.958;10.970;2024-03-02T08:30:03;64.60;;;31.35;;
39822;SDS011;25499;53.958;10.970;2024-03-02T08:32:36;66.05;;;32.78;;
39822;SDS011;25499;53.958;10.970;2024-03-02T08:35:06;65.03;;;32.60;;
39822;SDS011;25499;53.958;10.970;2024-03-02T08:37:33;63.17;;;31.00;;
39822;SDS011;25499;53.958;10.970;2024-03-02T08:40:00;59.55;;;30.92;;
39822;SDS011;25499;53.958;10.970;2024-03-02T08:42:29;60.63;;;30.38;;
39822;SDS011;25499;53.958;10.970;2024-03-02T08:44:57;60.38;;;30.20;;
39822;SDS011;25499;53.958;10.970;2024-03-02T08:47:26;59.60;;;30.02;;
39822;SDS011;25499;53.958;10.970;2024-03-02T08:49:53;57.85;;;31.25;;
39822;SDS011;25499;53.958;10.970;2024-03-02T08:52:25;60.28;;;31.05;;
39822;SDS011;25499;53.958;10.970;2024-03-02T08:55:03;57.08;;;30.08;;
39822;SDS011;25499;53.958;10.970;2024-03-02T08:57:51;55.70;;;30.52;;
39822;SDS011;25499;53.958;10.970;2024-03-02T09:00:26;59.25;;;30.50;;
39822;SDS011;25499;53.958;10.970;2024-03-02T09:03:02;63.72;;;31.63;;
39822;SDS011;25499;53.958;10.970;2024-03-02T09:05:38;59.97;;;30.63;;
39822;SDS011;25499;53.958;10.970;2024-03-02T09:08:12;61.83;;;31.67;;
39822;SDS011;25499;53.958;10.970;2024-03-02T09:10:41;65.95;;;30.65;;
39822;SDS011;25499;53.958;10.970;2024-03-02T09:13:11;56.90;;;28.25;;
39822;SDS011;25499;53.958;10.970;2024-03-02T09:18:22;59.22;;;30.92;;
39822;SDS011;25499;53.958;10.970;2024-03-02T09:20:52;57.30;;;30.67;;
39822;SDS011;25499;53.958;10.970;2024-03-02T09:23:25;57.33;;;30.17;;
39822;SDS011;25499;53.958;10.970;2024-03-02T09:25:53;61.55;;;31.65;;
39822;SDS011;25499;53.958;10.970;2024-03-02T09:28:22;56.47;;;30.75;;
39822;SDS011;25499;53.958;10.970;2024-03-02T09:30:49;56.45;;;29.48;;
39822;SDS011;25499;53.958;10.970;2024-03-02T09:33:21;55.45;;;30.73;;
39822;SDS011;25499;53.958;10.970;2024-03-02T09:36:03;55.72;;;29.08;;
39822;SDS011;25499;53.958;10.970;2024-03-02T09:39:04;52.33;;;27.15;;
39822;SDS011;25499;53.958;10.970;2024-03-02T09:41:43;50.38;;;27.65;;
39822;SDS011;25499;53.958;10.970;2024-03-02T09:44:11;49.78;;;28.02;;
39822;SDS011;25499;53.958;10.970;2024-03-02T09:46:38;54.97;;;27.35;;
39822;SDS011;25499;53.958;10.970;2024-03-02T09:49:05;45.92;;;24.98;;
39822;SDS011;25499;53.958;10.970;2024-03-02T09:51:32;52.47;;;27.63;;
39822;SDS011;25499;53.958;10.970;2024-03-02T09:54:02;49.30;;;26.17;;
39822;SDS011;25499;53.958;10.970;2024-03-02T09:56:30;46.05;;;25.88;;
39822;SDS011;25499;53.958;10.970;2024-03-02T09:58:58;47.92;;;26.98;;
39822;SDS011;25499;53.958;10.970;2024-03-02T10:01:26;47.92;;;26.67;;
39822;SDS011;25499;53.958;10.970;2024-03-02T10:03:53;49.53;;;27.00;;
39822;SDS011;25499;53.958;10.970;2024-03-02T10:06:21;46.72;;;26.65;;
39822;SDS011;25499;53.958;10.970;2024-03-02T10:08:52;46.40;;;26.02;;
39822;SDS011;25499;53.958;10.970;2024-03-02T10:11:28;46.73;;;25.30;;
39822;SDS011;25499;53.958;10.970;2024-03-02T10:14:06;48.13;;;25.75;;
39822;SDS011;25499;53.958;10.970;2024-03-02T10:16:34;48.80;;;25.50;;
39822;SDS011;25499;53.958;10.970;2024-03-02T10:19:18;43.55;;;25.63;;
39822;SDS011;25499;53.958;10.970;2024-03-02T10:21:46;48.30;;;25.20;;
39822;SDS011;25499;53.958;10.970;2024-03-02T10:24:14;47.63;;;26.15;;
39822;SDS011;25499;53.958;10.970;2024-03-02T10:26:43;48.97;;;26.63;;
39822;SDS011;25499;53.958;10.970;2024-03-02T10:29:17;46.42;;;25.77;;
39822;SDS011;25499;53.958;10.970;2024-03-02T10:32:07;44.63;;;25.17;;
39822;SDS011;25499;53.958;10.970;2024-03-02T10:37:22;43.38;;;24.17;;
39822;SDS011;25499;53.958;10.970;2024-03-02T10:39:51;42.47;;;23.77;;
39822;SDS011;25499;53.958;10.970;2024-03-02T10:42:23;42.92;;;24.70;;
39822;SDS011;25499;53.958;10.970;2024-03-02T10:45:02;41.42;;;22.95;;
39822;SDS011;25499;53.958;10.970;2024-03-02T10:49:57;39.83;;;22.20;;
39822;SDS011;25499;53.958;10.970;2024-03-02T10:52:29;43.17;;;23.05;;
39822;SDS011;25499;53.958;10.970;2024-03-02T10:54:59;41.42;;;23.63;;
39822;SDS011;25499;53.958;10.970;2024-03-02T10:57:28;37.08;;;21.40;;
39822;SDS011;25499;53.958;10.970;2024-03-02T11:00:12;35.55;;;20.65;;
39822;SDS011;25499;53.958;10.970;2024-03-02T11:02:51;32.45;;;19.98;;
39822;SDS011;25499;53.958;10.970;2024-03-02T11:05:26;33.17;;;19.75;;
39822;SDS011;25499;53.958;10.970;2024-03-02T11:07:57;30.73;;;18.65;;
39822;SDS011;25499;53.958;10.970;2024-03-02T11:10:32;29.58;;;17.67;;
39822;SDS011;25499;53.958;10.970;2024-03-02T11:13:05;26.52;;;16.58;;
39822;SDS011;25499;53.958;10.970;2024-03-02T11:15:35;27.45;;;16.85;;
39822;SDS011;25499;53.958;10.970;2024-03-02T11:18:03;25.50;;;16.00;;
39822;SDS011;25499;53.958;10.970;2024-03-02T11:20:34;23.40;;;15.25;;
39822;SDS011;25499;53.958;10.970;2024-03-02T11:23:06;25.00;;;14.50;;
39822;SDS011;25499;53.958;10.970;2024-03-02T11:25:34;23.50;;;14.95;;
39822;SDS011;25499;53.958;10.970;2024-03-02T11:28:02;20.67;;;13.55;;
39822;SDS011;25499;53.958;10.970;2024-03-02T11:30:51;19.83;;;13.57;;
39822;SDS011;25499;53.958;10.970;2024-03-02T11:33:26;18.48;;;12.73;;
39822;SDS011;25499;53.958;10.970;2024-03-02T11:35:54;18.88;;;11.93;;
39822;SDS011;25499;53.958;10.970;2024-03-02T11:38:22;17.98;;;12.02;;
39822;SDS011;25499;53.958;10.970;2024-03-02T11:40:50;17.92;;;12.27;;
39822;SDS011;25499;53.958;10.970;2024-03-02T11:43:18;17.42;;;11.52;;
39822;SDS011;25499;53.958;10.970;2024-03-02T11:45:46;18.10;;;10.95;;
39822;SDS011;25499;53.958;10.970;2024-03-02T11:48:13;15.85;;;11.27;;
39822;SDS011;25499;53.958;10.970;2024-03-02T11:50:41;16.77;;;10.98;;
39822;SDS011;25499;53.958;10.970;2024-03-02T11:53:12;15.20;;;11.07;;
39822;SDS011;25499;53.958;10.970;2024-03-02T11:55:39;20.05;;;11.30;;
39822;SDS011;25499;53.958;10.970;2024-03-02T11:58:09;17.77;;;12.23;;
39822;SDS011;25499;53.958;10.970;2024-03-02T12:00:37;14.80;;;10.93;;
39822;SDS011;25499;53.958;10.970;2024-03-02T12:03:04;15.35;;;10.60;;
39822;SDS011;25499;53.958;10.970;2024-03-02T12:05:33;13.90;;;10.73;;
39822;SDS011;25499;53.958;10.970;2024-03-02T12:08:02;13.88;;;10.40;;
39822;SDS011;25499;53.958;10.970;2024-03-02T12:10:30;14.55;;;10.50;;
39822;SDS011;25499;53.958;10.970;2024-03-02T12:12:57;13.35;;;10.20;;
39822;SDS011;25499;53.958;10.970;2024-03-02T12:15:25;18.65;;;10.55;;
39822;SDS011;25499;53.958;10.970;2024-03-02T12:17:55;16.92;;;10.27;;
39822;SDS011;25499;53.958;10.970;2024-03-02T12:20:22;13.97;;;10.23;;
39822;SDS011;25499;53.958;10.970;2024-03-02T12:22:50;15.13;;;9.35;;
39822;SDS011;25499;53.958;10.970;2024-03-02T12:25:18;13.32;;;10.10;;
39822;SDS011;25499;53.958;10.970;2024-03-02T12:27:46;15.90;;;11.02;;
39822;SDS011;25499;53.958;10.970;2024-03-02T12:30:16;18.30;;;10.93;;
39822;SDS011;25499;53.958;10.970;2024-03-02T12:32:44;15.20;;;10.40;;
39822;SDS011;25499;53.958;10.970;2024-03-02T12:35:12;13.77;;;10.30;;
39822;SDS011;25499;53.958;10.970;2024-03-02T12:40:12;13.32;;;9.90;;
39822;SDS011;25499;53.958;10.970;2024-03-02T12:42:41;13.50;;;9.57;;
39822;SDS011;25499;53.958;10.970;2024-03-02T12:45:08;10.23;;;7.80;;
39822;SDS011;25499;53.958;10.970;2024-03-02T12:47:35;14.38;;;8.70;;
39822;SDS011;25499;53.958;10.970;2024-03-02T12:50:03;11.38;;;7.10;;
39822;SDS011;25499;53.958;10.970;2024-03-02T12:52:32;10.20;;;7.32;;
39822;SDS011;25499;53.958;10.970;2024-03-02T12:54:59;9.80;;;7.20;;
39822;SDS011;25499;53.958;10.970;2024-03-02T12:57:28;12.43;;;7.10;;
39822;SDS011;25499;53.958;10.970;2024-03-02T12:59:57;10.25;;;6.97;;
39822;SDS011;25499;53.958;10.970;2024-03-02T13:02:27;10.18;;;7.57;;
39822;SDS011;25499;53.958;10.970;2024-03-02T13:04:54;9.50;;;7.10;;
39822;SDS011;25499;53.958;10.970;2024-03-02T13:07:22;9.32;;;7.18;;
39822;SDS011;25499;53.958;10.970;2024-03-02T13:09:51;9.23;;;6.28;;
39822;SDS011;25499;53.958;10.970;2024-03-02T13:12:19;10.23;;;7.00;;
39822;SDS011;25499;53.958;10.970;2024-03-02T13:14:47;10.25;;;6.70;;
39822;SDS011;25499;53.958;10.970;2024-03-02T13:17:15;10.95;;;6.68;;
39822;SDS011;25499;53.958;10.970;2024-03-02T13:19:43;10.73;;;6.53;;
39822;SDS011;25499;53.958;10.970;2024-03-02T13:22:17;11.05;;;6.63;;
39822;SDS011;25499;53.958;10.970;2024-03-02T13:24:45;9.73;;;6.75;;
39822;SDS011;25499;53.958;10.970;2024-03-02T13:27:13;8.73;;;6.25;;
39822;SDS011;25499;53.958;10.970;2024-03-02T13:29:41;9.88;;;6.35;;
39822;SDS011;25499;53.958;10.970;2024-03-02T13:32:08;10.75;;;6.22;;
39822;SDS011;25499;53.958;10.970;2024-03-02T13:34:35;9.52;;;6.28;;
39822;SDS011;25499;53.958;10.970;2024-03-02T13:37:02;10.88;;;6.72;;
39822;SDS011;25499;53.958;10.970;2024-03-02T13:39:30;10.80;;;6.65;;
39822;SDS011;25499;53.958;10.970;2024-03-02T13:41:57;9.43;;;6.68;;
39822;SDS011;25499;53.958;10.970;2024-03-02T13:44:30;10.02;;;6.55;;
39822;SDS011;25499;53.958;10.970;2024-03-02T13:46:58;10.38;;;6.20;;
39822;SDS011;25499;53.958;10.970;2024-03-02T13:49:25;11.38;;;6.53;;
39822;SDS011;25499;53.958;10.970;2024-03-02T13:51:58;11.27;;;7.05;;
39822;SDS011;25499;53.958;10.970;2024-03-02T13:54:28;10.83;;;6.83;;
39822;SDS011;25499;53.958;10.970;2024-03-02T13:56:55;12.40;;;7.22;;
39822;SDS011;25499;53.958;10.970;2024-03-02T13:59:23;11.90;;;7.22;;
39822;SDS011;25499;53.958;10.970;2024-03-02T14:01:53;12.25;;;7.38;;
39822;SDS011;25499;53.958;10.970;2024-03-02T14:04:20;10.40;;;7.05;;
39822;SDS011;25499;53.958;10.970;2024-03-02T14:06:47;12.48;;;7.57;;
39822;SDS011;25499;53.958;10.970;2024-03-02T14:09:16;10.68;;;7.03;;
39822;SDS011;25499;53.958;10.970;2024-03-02T14:11:45;11.20;;;7.20;;
39822;SDS011;25499;53.958;10.970;2024-03-02T14:14:12;13.38;;;7.10;;
39822;SDS011;25499;53.958;10.970;2024-03-02T14:16:39;11.10;;;7.38;;
39822;SDS011;25499;53.958;10.970;2024-03-02T14:19:10;12.43;;;7.68;;
39822;SDS011;25499;53.958;10.970;2024-03-02T14:21:38;13.52;;;8.20;;
39822;SDS011;25499;53.958;10.970;2024-03-02T14:24:05;13.55;;;7.60;;
39822;SDS011;25499;53.958;10.970;2024-03-02T14:26:33;12.10;;;7.15;;
39822;SDS011;25499;53.958;10.970;2024-03-02T14:29:00;11.70;;;7.07;;
39822;SDS011;25499;53.958;10.970;2024-03-02T14:31:27;10.43;;;7.63;;
39822;SDS011;25499;53.958;10.970;2024-03-02T14:33:54;10.98;;;7.07;;
39822;SDS011;25499;53.958;10.970;2024-03-02T14:36:22;10.55;;;7.00;;
39822;SDS011;25499;53.958;10.970;2024-03-02T14:38:54;13.13;;;7.63;;
39822;SDS011;25499;53.958;10.970;2024-03-02T14:41:48;10.82;;;7.28;;
39822;SDS011;25499;53.958;10.970;2024-03-02T14:47:39;11.90;;;7.47;;
39822;SDS011;25499;53.958;10.970;2024-03-02T14:50:07;13.48;;;8.55;;
39822;SDS011;25499;53.958;10.970;2024-03-02T14:52:38;14.20;;;8.77;;
39822;SDS011;25499;53.958;10.970;2024-03-02T14:57:48;15.75;;;8.80;;
39822;SDS011;25499;53.958;10.970;2024-03-02T15:00:24;12.80;;;8.80;;
39822;SDS011;25499;53.958;10.970;2024-03-02T15:02:54;15.30;;;9.57;;
39822;SDS011;25499;53.958;10.970;2024-03-02T15:05:29;13.98;;;9.65;;
39822;SDS011;25499;53.958;10.970;2024-03-02T15:07:57;15.55;;;9.32;;
39822;SDS011;25499;53.958;10.970;2024-03-02T15:10:29;15.25;;;9.48;;
39822;SDS011;25499;53.958;10.970;2024-03-02T15:13:02;17.63;;;10.02;;
39822;SDS011;25499;53.958;10.970;2024-03-02T15:15:32;17.65;;;10.15;;
39822;SDS011;25499;53.958;10.970;2024-03-02T15:18:09;15.95;;;10.18;;
39822;SDS011;25499;53.958;10.970;2024-03-02T15:20:45;13.73;;;9.77;;
39822;SDS011;25499;53.958;10.970;2024-03-02T15:23:25;21.48;;;10.40;;
39822;SDS011;25499;53.958;10.970;2024-03-02T15:26:38;20.52;;;12.38;;
39822;SDS011;25499;53.958;10.970;2024-03-02T15:29:14;27.98;;;15.57;;
39822;SDS011;25499;53.958;10.970;2024-03-02T15:31:57;28.95;;;16.83;;
39822;SDS011;25499;53.958;10.970;2024-03-02T15:34:43;30.73;;;15.63;;
39822;SDS011;25499;53.958;10.970;2024-03-02T15:37:16;23.20;;;13.80;;
39822;SDS011;25499;53.958;10.970;2024-03-02T15:39:48;29.30;;;12.85;;
39822;SDS011;25499;53.958;10.970;2024-03-02T15:42:19;23.83;;;11.32;;
39822;SDS011;25499;53.958;10.970;2024-03-02T15:44:51;18.40;;;11.93;;
39822;SDS011;25499;53.958;10.970;2024-03-02T15:47:21;20.52;;;11.95;;
39822;SDS011;25499;53.958;10.970;2024-03-02T15:49:51;20.65;;;12.18;;
39822;SDS011;25499;53.958;10.970;2024-03-02T15:52:20;23.52;;;12.35;;
39822;SDS011;25499;53.958;10.970;2024-03-02T15:54:50;25.63;;;12.45;;
39822;SDS011;25499;53.958;10.970;2024-03-02T15:57:24;20.52;;;13.13;;
39822;SDS011;25499;53.958;10.970;2024-03-02T15:59:57;23.48;;;13.50;;
39822;SDS011;25499;53.958;10.970;2024-03-02T16:02:26;26.80;;;14.13;;
39822;SDS011;25499;53.958;10.970;2024-03-02T16:04:56;27.45;;;14.00;;
39822;SDS011;25499;53.958;10.970;2024-03-02T16:07:25;26.35;;;13.10;;
39822;SDS011;25499;53.958;10.970;2024-03-02T16:09:55;22.38;;;13.30;;
39822;SDS011;25499;53.958;10.970;2024-03-02T16:12:38;28.60;;;14.23;;
39822;SDS011;25499;53.958;10.970;2024-03-02T16:15:08;21.77;;;12.70;;
39822;SDS011;25499;53.958;10.970;2024-03-02T16:17:36;21.77;;;12.85;;
39822;SDS011;25499;53.958;10.970;2024-03-02T16:20:03;20.45;;;13.02;;
39822;SDS011;25499;53.958;10.970;2024-03-02T16:22:31;21.65;;;12.82;;
39822;SDS011;25499;53.958;10.970;2024-03-02T16:24:59;24.98;;;15.68;;
39822;SDS011;25499;53.958;10.970;2024-03-02T16:27:26;25.73;;;16.30;;
39822;SDS011;25499;53.958;10.970;2024-03-02T16:29:53;31.98;;;19.33;;
39822;SDS011;25499;53.958;10.970;2024-03-02T16:32:21;33.15;;;19.65;;
39822;SDS011;25499;53.958;10.970;2024-03-02T16:34:48;28.88;;;18.52;;
39822;SDS011;25499;53.958;10.970;2024-03-02T16:37:15;27.55;;;16.88;;
39822;SDS011;25499;53.958;10.970;2024-03-02T16:39:43;94.22;;;45.97;;
39822;SDS011;25499;53.958;10.970;2024-03-02T16:42:11;72.80;;;35.85;;
39822;SDS011;25499;53.958;10.970;2024-03-02T16:47:23;40.63;;;21.52;;
39822;SDS011;25499;53.958;10.970;2024-03-02T16:49:51;27.45;;;16.50;;
39822;SDS011;25499;53.958;10.970;2024-03-02T16:52:18;26.80;;;15.23;;
39822;SDS011;25499;53.958;10.970;2024-03-02T16:54:47;26.85;;;15.30;;
39822;SDS011;25499;53.958;10.970;2024-03-02T16:57:17;25.02;;;14.40;;
39822;SDS011;25499;53.958;10.970;2024-03-02T16:59:44;23.73;;;14.95;;
39822;SDS011;25499;53.958;10.970;2024-03-02T17:05:03;24.50;;;15.05;;
39822;SDS011;25499;53.958;10.970;2024-03-02T17:07:31;25.10;;;15.50;;
39822;SDS011;25499;53.958;10.970;2024-03-02T17:10:02;23.00;;;14.73;;
39822;SDS011;25499;53.958;10.970;2024-03-02T17:12:32;24.83;;;14.88;;
39822;SDS011;25499;53.958;10.970;2024-03-02T17:15:05;23.63;;;14.90;;
39822;SDS011;25499;53.958;10.970;2024-03-02T17:17:37;23.67;;;15.10;;
39822;SDS011;25499;53.958;10.970;2024-03-02T17:20:05;25.63;;;15.15;;
39822;SDS011;25499;53.958;10.970;2024-03-02T17:22:34;23.45;;;15.18;;
39822;SDS011;25499;53.958;10.970;2024-03-02T17:25:01;26.75;;;15.88;;
39822;SDS011;25499;53.958;10.970;2024-03-02T17:27:31;26.00;;;15.55;;
39822;SDS011;25499;53.958;10.970;2024-03-02T17:29:58;27.08;;;15.80;;
39822;SDS011;25499;53.958;10.970;2024-03-02T17:32:27;24.52;;;15.25;;
39822;SDS011;25499;53.958;10.970;2024-03-02T17:34:54;25.38;;;15.15;;
39822;SDS011;25499;53.958;10.970;2024-03-02T17:37:25;24.70;;;14.95;;
39822;SDS011;25499;53.958;10.970;2024-03-02T17:39:52;24.00;;;15.05;;
39822;SDS011;25499;53.958;10.970;2024-03-02T17:42:21;25.63;;;15.57;;
39822;SDS011;25499;53.958;10.970;2024-03-02T17:44:53;24.53;;;16.00;;
39822;SDS011;25499;53.958;10.970;2024-03-02T17:47:28;25.85;;;15.30;;
39822;SDS011;25499;53.958;10.970;2024-03-02T17:49:57;23.45;;;15.38;;
39822;SDS011;25499;53.958;10.970;2024-03-02T17:52:27;25.77;;;15.80;;
39822;SDS011;25499;53.958;10.970;2024-03-02T17:54:56;24.20;;;15.45;;
39822;SDS011;25499;53.958;10.970;2024-03-02T17:59:55;25.33;;;15.00;;
39822;SDS011;25499;53.958;10.970;2024-03-02T18:02:22;26.38;;;15.23;;
39822;SDS011;25499;53.958;10.970;2024-03-02T18:04:49;24.40;;;16.23;;
39822;SDS011;25499;53.958;10.970;2024-03-02T18:07:16;25.30;;;16.42;;
39822;SDS011;25499;53.958;10.970;2024-03-02T18:09:44;25.80;;;16.80;;
39822;SDS011;25499;53.958;10.970;2024-03-02T18:12:11;30.33;;;16.95;;
39822;SDS011;25499;53.958;10.970;2024-03-02T18:14:39;28.67;;;16.65;;
39822;SDS011;25499;53.958;10.970;2024-03-02T18:17:08;29.10;;;16.58;;
39822;SDS011;25499;53.958;10.970;2024-03-02T18:19:37;28.33;;;16.67;;
39822;SDS011;25499;53.958;10.970;2024-03-02T18:22:04;27.58;;;17.15;;
39822;SDS011;25499;53.958;10.970;2024-03-02T18:24:31;29.17;;;16.50;;
39822;SDS011;25499;53.958;10.970;2024-03-02T18:26:58;28.55;;;17.52;;
39822;SDS011;25499;53.958;10.970;2024-03-02T18:29:25;25.00;;;16.42;;
39822;SDS011;25499;53.958;10.970;2024-03-02T18:31:52;28.60;;;16.65;;
39822;SDS011;25499;53.958;10.970;2024-03-02T18:34:21;26.77;;;16.55;;
39822;SDS011;25499;53.958;10.970;2024-03-02T18:36:47;29.42;;;17.90;;
39822;SDS011;25499;53.958;10.970;2024-03-02T18:39:14;29.05;;;17.17;;
39822;SDS011;25499;53.958;10.970;2024-03-02T18:41:41;34.53;;;18.75;;
39822;SDS011;25499;53.958;10.970;2024-03-02T18:44:09;27.35;;;16.50;;
39822;SDS011;25499;53.958;10.970;2024-03-02T18:46:36;28.08;;;17.27;;
39822;SDS011;25499;53.958;10.970;2024-03-02T18:49:02;31.88;;;18.52;;
39822;SDS011;25499;53.958;10.970;2024-03-02T18:51:30;33.85;;;18.17;;
39822;SDS011;25499;53.958;10.970;2024-03-02T18:53:57;31.45;;;17.80;;
39822;SDS011;25499;53.958;10.970;2024-03-02T18:56:24;33.05;;;19.20;;
39822;SDS011;25499;53.958;10.970;2024-03-02T18:58:51;28.55;;;17.60;;
39822;SDS011;25499;53.958;10.970;2024-03-02T19:01:18;29.27;;;17.67;;
39822;SDS011;25499;53.958;10.970;2024-03-02T19:03:45;29.55;;;17.27;;
39822;SDS011;25499;53.958;10.970;2024-03-02T19:06:13;28.38;;;17.63;;
39822;SDS011;25499;53.958;10.970;2024-03-02T19:08:42;28.83;;;16.08;;
39822;SDS011;25499;53.958;10.970;2024-03-02T19:11:11;28.98;;;16.80;;
39822;SDS011;25499;53.958;10.970;2024-03-02T19:13:39;26.52;;;16.42;;
39822;SDS011;25499;53.958;10.970;2024-03-02T19:16:09;28.70;;;16.65;;
39822;SDS011;25499;53.958;10.970;2024-03-02T19:18:36;25.50;;;15.95;;
39822;SDS011;25499;53.958;10.970;2024-03-02T19:21:03;26.98;;;16.27;;
39822;SDS011;25499;53.958;10.970;2024-03-02T19:23:30;25.70;;;15.75;;
39822;SDS011;25499;53.958;10.970;2024-03-02T19:25:58;26.75;;;14.98;;
39822;SDS011;25499;53.958;10.970;2024-03-02T19:28:25;25.58;;;16.02;;
39822;SDS011;25499;53.958;10.970;2024-03-02T19:30:52;27.02;;;16.83;;
39822;SDS011;25499;53.958;10.970;2024-03-02T19:33:19;28.67;;;16.80;;
39822;SDS011;25499;53.958;10.970;2024-03-02T19:35:46;27.75;;;16.55;;
39822;SDS011;25499;53.958;10.970;2024-03-02T19:38:13;28.58;;;17.13;;
39822;SDS011;25499;53.958;10.970;2024-03-02T19:40:40;29.45;;;18.02;;
39822;SDS011;25499;53.958;10.970;2024-03-02T19:43:08;30.27;;;17.65;;
39822;SDS011;25499;53.958;10.970;2024-03-02T19:45:34;29.02;;;17.88;;
39822;SDS011;25499;53.958;10.970;2024-03-02T19:48:01;29.45;;;17.65;;
39822;SDS011;25499;53.958;10.970;2024-03-02T19:50:28;29.58;;;17.40;;
39822;SDS011;25499;53.958;10.970;2024-03-02T19:52:55;33.80;;;18.80;;
39822;SDS011;25499;53.958;10.970;2024-03-02T19:55:22;29.45;;;18.27;;
39822;SDS011;25499;53.958;10.970;2024-03-02T19:57:54;30.55;;;20.00;;
39822;SDS011;25499;53.958;10.970;2024-03-02T20:00:22;31.17;;;18.73;;
39822;SDS011;25499;53.958;10.970;2024-03-02T20:02:49;32.53;;;19.95;;
39822;SDS011;25499;53.958;10.970;2024-03-02T20:05:16;31.33;;;19.52;;
39822;SDS011;25499;53.958;10.970;2024-03-02T20:07:43;32.95;;;19.38;;
39822;SDS011;25499;53.958;10.970;2024-03-02T20:10:10;34.13;;;19.42;;
39822;SDS011;25499;53.958;10.970;2024-03-02T20:12:38;34.58;;;20.35;;
39822;SDS011;25499;53.958;10.970;2024-03-02T20:15:05;37.58;;;20.27;;
39822;SDS011;25499;53.958;10.970;2024-03-02T20:17:36;33.05;;;18.70;;
39822;SDS011;25499;53.958;10.970;2024-03-02T20:20:04;36.33;;;20.23;;
39822;SDS011;25499;53.958;10.970;2024-03-02T20:22:32;35.88;;;19.80;;
39822;SDS011;25499;53.958;10.970;2024-03-02T20:24:58;35.35;;;20.17;;
39822;SDS011;25499;53.958;10.970;2024-03-02T20:27:27;35.33;;;19.88;;
39822;SDS011;25499;53.958;10.970;2024-03-02T20:29:54;34.20;;;20.48;;
39822;SDS011;25499;53.958;10.970;2024-03-02T20:32:22;36.83;;;21.20;;
39822;SDS011;25499;53.958;10.970;2024-03-02T20:34:50;34.88;;;21.15;;
39822;SDS011;25499;53.958;10.970;2024-03-02T20:37:17;34.90;;;19.50;;
39822;SDS011;25499;53.958;10.970;2024-03-02T20:39:48;34.80;;;19.98;;
39822;SDS011;25499;53.958;10.970;2024-03-02T20:42:16;36.90;;;20.90;;
39822;SDS011;25499;53.958;10.970;2024-03-02T20:44:42;38.35;;;21.58;;
39822;SDS011;25499;53.958;10.970;2024-03-02T20:47:09;36.13;;;21.77;;
39822;SDS011;25499;53.958;10.970;2024-03-02T20:49:36;35.08;;;21.20;;
39822;SDS011;25499;53.958;10.970;2024-03-02T20:52:08;37.92;;;21.58;;
39822;SDS011;25499;53.958;10.970;2024-03-02T20:54:36;35.55;;;21.42;;
39822;SDS011;25499;53.958;10.970;2024-03-02T20:57:04;37.72;;;22.45;;
39822;SDS011;25499;53.958;10.970;2024-03-02T20:59:31;37.83;;;22.00;;
39822;SDS011;25499;53.958;10.970;2024-03-02T21:01:58;37.33;;;22.17;;
39822;SDS011;25499;53.958;10.970;2024-03-02T21:04:25;37.95;;;22.02;;
